sensor_id;sensor_type;location;lat;lon;timestamp;pressure;altitude;pressure_sealevel;temperature;humidity
9740;BME280;4909;42.680;26.324;2024-01-30T00:01:54;100645.41;;;4.19;72.42
9740;BME280;4909;42.680;26.324;2024-01-30T00:04:21;100644.88;;;3.83;72.99
9740;BME280;4909;42.680;26.324;2024-01-30T00:06:51;100640.22;;;3.64;74.44
9740;BME280;4909;42.680;26.324;2024-01-30T00:09:18;100649.28;;;3.82;74.53
9740;BME280;4909;42.680;26.324;2024-01-30T00:11:45;100642.28;;;3.84;74.24
9740;BME280;4909;42.680;26.324;2024-01-30T00:14:12;100647.56;;;3.87;74.61
9740;BME280;4909;42.680;26.324;2024-01-30T00:16:39;100635.38;;;3.91;74.15
9740;BME280;4909;42.680;26.324;2024-01-30T00:19:06;100593.78;;;3.61;73.91
9740;BME280;4909;42.680;26.324;2024-01-30T00:21:33;100654.53;;;3.82;74.78
9740;BME280;4909;42.680;26.324;2024-01-30T00:24:02;100614.94;;;3.70;75.13
9740;BME280;4909;42.680;26.324;2024-01-30T00:26:29;100658.13;;;3.90;73.88
9740;BME280;4909;42.680;26.324;2024-01-30T00:28:56;100652.22;;;4.07;73.97
9740;BME280;4909;42.680;26.324;2024-01-30T00:31:24;100664.63;;;4.15;73.59
9740;BME280;4909;42.680;26.324;2024-01-30T00:33:51;100654.97;;;4.14;73.69
9740;BME280;4909;42.680;26.324;2024-01-30T00:36:18;100665.50;;;4.16;74.16
9740;BME280;4909;42.680;26.324;2024-01-30T00:38:45;100650.81;;;4.30;73.70
9740;BME280;4909;42.680;26.324;2024-01-30T00:41:15;100670.34;;;4.50;73.11
9740;BME280;4909;42.680;26.324;2024-01-30T00:43:44;100667.72;;;4.50;72.32
9740;BME280;4909;42.680;26.324;2024-01-30T00:46:11;100652.75;;;4.45;72.48
9740;BME280;4909;42.680;26.324;2024-01-30T00:48:38;100666.81;;;4.51;72.30
9740;BME280;4909;42.680;26.324;2024-01-30T00:51:05;100665.78;;;4.35;72.99
9740;BME280;4909;42.680;26.324;2024-01-30T00:53:31;100610.16;;;4.07;72.57
9740;BME280;4909;42.680;26.324;2024-01-30T00:55:58;100630.53;;;4.23;73.78
9740;BME280;4909;42.680;26.324;2024-01-30T00:58:27;100667.75;;;3.90;73.87
9740;BME280;4909;42.680;26.324;2024-01-30T01:00:54;100639.72;;;3.89;73.82
9740;BME280;4909;42.680;26.324;2024-01-30T01:03:21;100657.66;;;4.19;73.75
9740;BME280;4909;42.680;26.324;2024-01-30T01:05:48;100611.09;;;4.09;73.42
9740;BME280;4909;42.680;26.324;2024-01-30T01:08:15;100655.41;;;4.51;72.39
9740;BME280;4909;42.680;26.324;2024-01-30T01:10:42;100651.03;;;4.51;72.42
9740;BME280;4909;42.680;26.324;2024-01-30T01:13:09;100640.38;;;4.41;71.04
9740;BME280;4909;42.680;26.324;2024-01-30T01:15:37;100652.63;;;4.37;70.87
9740;BME280;4909;42.680;26.324;2024-01-30T01:18:05;100662.91;;;4.19;70.78
9740;BME280;4909;42.680;26.324;2024-01-30T01:20:31;100633.78;;;4.04;69.74
9740;BME280;4909;42.680;26.324;2024-01-30T01:22:58;100662.13;;;4.27;70.09
9740;BME280;4909;42.680;26.324;2024-01-30T01:25:25;100659.75;;;4.46;69.74
9740;BME280;4909;42.680;26.324;2024-01-30T01:27:52;100654.81;;;4.73;69.13
9740;BME280;4909;42.680;26.324;2024-01-30T01:30:19;100652.25;;;4.77;69.46
9740;BME280;4909;42.680;26.324;2024-01-30T01:32:49;100662.00;;;4.88;68.95
9740;BME280;4909;42.680;26.324;2024-01-30T01:35:21;100659.38;;;4.91;66.01
9740;BME280;4909;42.680;26.324;2024-01-30T01:37:48;100663.81;;;4.93;66.14
9740;BME280;4909;42.680;26.324;2024-01-30T01:40:22;100672.72;;;5.09;66.01
9740;BME280;4909;42.680;26.324;2024-01-30T01:42:50;100660.25;;;4.90;66.32
9740;BME280;4909;42.680;26.324;2024-01-30T01:45:17;100673.59;;;5.09;66.44
9740;BME280;4909;42.680;26.324;2024-01-30T01:47:47;100663.03;;;5.02;65.09
9740;BME280;4909;42.680;26.324;2024-01-30T01:50:17;100656.78;;;4.92;65.86
9740;BME280;4909;42.680;26.324;2024-01-30T01:52:47;100674.44;;;5.02;65.11
9740;BME280;4909;42.680;26.324;2024-01-30T01:55:15;100653.13;;;4.79;64.67
9740;BME280;4909;42.680;26.324;2024-01-30T01:57:43;100650.44;;;4.73;64.25
9740;BME280;4909;42.680;26.324;2024-01-30T02:00:11;100632.50;;;4.41;64.88
9740;BME280;4909;42.680;26.324;2024-01-30T02:02:39;100672.94;;;4.49;65.50
9740;BME280;4909;42.680;26.324;2024-01-30T02:05:07;100666.84;;;4.53;65.28
9740;BME280;4909;42.680;26.324;2024-01-30T02:07:36;100650.09;;;4.46;65.93
9740;BME280;4909;42.680;26.324;2024-01-30T02:10:04;100655.56;;;4.60;65.81
9740;BME280;4909;42.680;26.324;2024-01-30T02:12:31;100661.78;;;4.68;64.88
9740;BME280;4909;42.680;26.324;2024-01-30T02:14:58;100642.50;;;4.70;65.34
9740;BME280;4909;42.680;26.324;2024-01-30T02:17:25;100655.63;;;4.67;65.41
9740;BME280;4909;42.680;26.324;2024-01-30T02:19:52;100658.31;;;4.72;64.78
9740;BME280;4909;42.680;26.324;2024-01-30T02:22:21;100653.41;;;4.28;66.31
9740;BME280;4909;42.680;26.324;2024-01-30T02:24:49;100642.63;;;4.09;66.15
9740;BME280;4909;42.680;26.324;2024-01-30T02:27:16;100652.47;;;4.26;66.97
9740;BME280;4909;42.680;26.324;2024-01-30T02:29:43;100638.63;;;4.38;66.67
9740;BME280;4909;42.680;26.324;2024-01-30T02:32:10;100634.31;;;4.46;65.79
9740;BME280;4909;42.680;26.324;2024-01-30T02:34:37;100607.97;;;4.38;64.95
9740;BME280;4909;42.680;26.324;2024-01-30T02:37:04;100642.50;;;4.70;64.70
9740;BME280;4909;42.680;26.324;2024-01-30T02:39:32;100640.69;;;4.65;64.90
9740;BME280;4909;42.680;26.324;2024-01-30T02:41:59;100614.63;;;4.11;66.14
9740;BME280;4909;42.680;26.324;2024-01-30T02:44:26;100648.13;;;4.25;65.65
9740;BME280;4909;42.680;26.324;2024-01-30T02:46:53;100637.75;;;4.39;64.68
9740;BME280;4909;42.680;26.324;2024-01-30T02:49:20;100635.94;;;4.33;65.62
9740;BME280;4909;42.680;26.324;2024-01-30T02:51:48;100649.13;;;4.38;65.48
9740;BME280;4909;42.680;26.324;2024-01-30T02:54:15;100639.28;;;4.22;66.09
9740;BME280;4909;42.680;26.324;2024-01-30T02:56:43;100638.28;;;4.11;66.45
9740;BME280;4909;42.680;26.324;2024-01-30T02:59:10;100609.78;;;3.76;67.21
9740;BME280;4909;42.680;26.324;2024-01-30T03:01:43;100648.31;;;3.79;68.85
9740;BME280;4909;42.680;26.324;2024-01-30T03:04:10;100617.81;;;3.88;67.87
9740;BME280;4909;42.680;26.324;2024-01-30T03:06:38;100623.34;;;4.08;67.70
9740;BME280;4909;42.680;26.324;2024-01-30T03:09:05;100610.19;;;4.05;67.83
9740;BME280;4909;42.680;26.324;2024-01-30T03:11:32;100599.44;;;3.88;68.32
9740;BME280;4909;42.680;26.324;2024-01-30T03:14:00;100608.44;;;4.07;67.57
9740;BME280;4909;42.680;26.324;2024-01-30T03:16:27;100612.91;;;4.14;67.23
9740;BME280;4909;42.680;26.324;2024-01-30T03:18:54;100603.50;;;4.33;66.68
9740;BME280;4909;42.680;26.324;2024-01-30T03:21:21;100581.50;;;4.25;66.82
9740;BME280;4909;42.680;26.324;2024-01-30T03:23:48;100610.78;;;4.57;66.39
9740;BME280;4909;42.680;26.324;2024-01-30T03:26:15;100609.19;;;4.69;66.65
9740;BME280;4909;42.680;26.324;2024-01-30T03:28:42;100615.34;;;4.74;65.46
9740;BME280;4909;42.680;26.324;2024-01-30T03:31:09;100614.38;;;4.65;65.86
9740;BME280;4909;42.680;26.324;2024-01-30T03:33:36;100571.09;;;4.34;66.54
9740;BME280;4909;42.680;26.324;2024-01-30T03:36:05;100602.13;;;4.67;66.61
9740;BME280;4909;42.680;26.324;2024-01-30T03:38:32;100606.31;;;4.48;66.85
9740;BME280;4909;42.680;26.324;2024-01-30T03:40:59;100615.78;;;4.32;68.13
9740;BME280;4909;42.680;26.324;2024-01-30T03:43:27;100541.94;;;4.13;67.35
9740;BME280;4909;42.680;26.324;2024-01-30T03:45:53;100612.41;;;4.46;67.47
9740;BME280;4909;42.680;26.324;2024-01-30T03:48:22;100603.44;;;4.27;68.35
9740;BME280;4909;42.680;26.324;2024-01-30T03:50:49;100592.66;;;4.07;68.15
9740;BME280;4909;42.680;26.324;2024-01-30T03:53:16;100615.50;;;4.10;68.57
9740;BME280;4909;42.680;26.324;2024-01-30T03:55:43;100620.00;;;4.21;68.41
9740;BME280;4909;42.680;26.324;2024-01-30T03:58:12;100631.34;;;4.17;68.37
9740;BME280;4909;42.680;26.324;2024-01-30T04:00:39;100615.38;;;4.01;67.13
9740;BME280;4909;42.680;26.324;2024-01-30T04:03:06;100610.56;;;4.37;67.36
9740;BME280;4909;42.680;26.324;2024-01-30T04:05:34;100609.78;;;4.44;67.40
9740;BME280;4909;42.680;26.324;2024-01-30T04:08:01;100627.97;;;4.26;67.28
9740;BME280;4909;42.680;26.324;2024-01-30T04:10:28;100631.47;;;4.25;66.88
9740;BME280;4909;42.680;26.324;2024-01-30T04:12:55;100609.94;;;3.88;68.73
9740;BME280;4909;42.680;26.324;2024-01-30T04:15:22;100636.03;;;3.78;69.10
9740;BME280;4909;42.680;26.324;2024-01-30T04:17:50;100626.72;;;3.97;68.39
9740;BME280;4909;42.680;26.324;2024-01-30T04:20:17;100621.69;;;4.15;67.58
9740;BME280;4909;42.680;26.324;2024-01-30T04:22:46;100656.22;;;4.44;67.57
9740;BME280;4909;42.680;26.324;2024-01-30T04:25:13;100655.28;;;4.38;66.70
9740;BME280;4909;42.680;26.324;2024-01-30T04:27:40;100639.75;;;4.58;66.06
9740;BME280;4909;42.680;26.324;2024-01-30T04:30:08;100666.06;;;4.60;67.03
9740;BME280;4909;42.680;26.324;2024-01-30T04:32:35;100643.84;;;4.36;67.41
9740;BME280;4909;42.680;26.324;2024-01-30T04:35:03;100654.09;;;4.15;67.31
9740;BME280;4909;42.680;26.324;2024-01-30T04:37:30;100632.19;;;4.15;67.25
9740;BME280;4909;42.680;26.324;2024-01-30T04:39:58;100642.88;;;4.28;67.65
9740;BME280;4909;42.680;26.324;2024-01-30T04:42:25;100582.25;;;4.13;68.17
9740;BME280;4909;42.680;26.324;2024-01-30T04:44:52;100623.59;;;4.28;69.07
9740;BME280;4909;42.680;26.324;2024-01-30T04:47:19;100601.06;;;4.48;67.28
9740;BME280;4909;42.680;26.324;2024-01-30T04:49:47;100597.22;;;4.20;68.44
9740;BME280;4909;42.680;26.324;2024-01-30T04:52:14;100604.94;;;4.08;69.44
9740;BME280;4909;42.680;26.324;2024-01-30T04:54:41;100581.84;;;3.83;70.03
9740;BME280;4909;42.680;26.324;2024-01-30T04:57:09;100574.44;;;3.53;71.37
9740;BME280;4909;42.680;26.324;2024-01-30T04:59:37;100608.72;;;3.65;72.42
9740;BME280;4909;42.680;26.324;2024-01-30T05:02:04;100622.78;;;3.67;72.75
9740;BME280;4909;42.680;26.324;2024-01-30T05:04:32;100592.66;;;3.44;72.75
9740;BME280;4909;42.680;26.324;2024-01-30T05:06:59;100616.53;;;3.61;73.93
9740;BME280;4909;42.680;26.324;2024-01-30T05:09:26;100621.75;;;3.59;73.27
9740;BME280;4909;42.680;26.324;2024-01-30T05:11:53;100599.97;;;3.65;72.47
9740;BME280;4909;42.680;26.324;2024-01-30T05:14:22;100614.00;;;3.68;72.95
9740;BME280;4909;42.680;26.324;2024-01-30T05:16:49;100616.53;;;3.61;73.27
9740;BME280;4909;42.680;26.324;2024-01-30T05:19:16;100604.41;;;3.69;73.61
9740;BME280;4909;42.680;26.324;2024-01-30T05:21:43;100618.31;;;3.63;73.53
9740;BME280;4909;42.680;26.324;2024-01-30T05:24:10;100607.03;;;3.67;73.01
9740;BME280;4909;42.680;26.324;2024-01-30T05:26:38;100617.06;;;3.37;73.17
9740;BME280;4909;42.680;26.324;2024-01-30T05:29:05;100612.19;;;3.61;73.65
9740;BME280;4909;42.680;26.324;2024-01-30T05:31:34;100592.00;;;3.57;72.95
9740;BME280;4909;42.680;26.324;2024-01-30T05:34:01;100613.44;;;3.89;71.81
9740;BME280;4909;42.680;26.324;2024-01-30T05:36:28;100565.56;;;3.46;72.38
9740;BME280;4909;42.680;26.324;2024-01-30T05:38:56;100635.13;;;3.74;73.21
9740;BME280;4909;42.680;26.324;2024-01-30T05:41:23;100629.16;;;3.84;72.72
9740;BME280;4909;42.680;26.324;2024-01-30T05:43:50;100637.97;;;3.89;72.88
9740;BME280;4909;42.680;26.324;2024-01-30T05:46:17;100650.38;;;4.00;71.91
9740;BME280;4909;42.680;26.324;2024-01-30T05:48:45;100649.66;;;4.10;71.97
9740;BME280;4909;42.680;26.324;2024-01-30T05:51:12;100656.72;;;4.17;72.02
9740;BME280;4909;42.680;26.324;2024-01-30T05:53:39;100654.06;;;4.11;71.05
9740;BME280;4909;42.680;26.324;2024-01-30T05:56:06;100646.75;;;3.90;71.88
9740;BME280;4909;42.680;26.324;2024-01-30T05:58:34;100665.22;;;3.98;72.15
9740;BME280;4909;42.680;26.324;2024-01-30T06:01:03;100637.59;;;3.64;74.02
9740;BME280;4909;42.680;26.324;2024-01-30T06:03:30;100669.44;;;3.85;73.31
9740;BME280;4909;42.680;26.324;2024-01-30T06:05:58;100664.88;;;3.73;73.78
9740;BME280;4909;42.680;26.324;2024-01-30T06:08:24;100670.06;;;3.67;73.87
9740;BME280;4909;42.680;26.324;2024-01-30T06:10:51;100672.03;;;3.82;73.72
9740;BME280;4909;42.680;26.324;2024-01-30T06:13:18;100657.88;;;3.72;74.14
9740;BME280;4909;42.680;26.324;2024-01-30T06:15:45;100683.19;;;3.69;73.83
9740;BME280;4909;42.680;26.324;2024-01-30T06:18:12;100688.50;;;3.73;74.32
9740;BME280;4909;42.680;26.324;2024-01-30T06:20:39;100689.66;;;3.90;73.45
9740;BME280;4909;42.680;26.324;2024-01-30T06:23:07;100681.53;;;3.75;73.99
9740;BME280;4909;42.680;26.324;2024-01-30T06:25:34;100687.75;;;3.80;73.89
9740;BME280;4909;42.680;26.324;2024-01-30T06:28:01;100677.03;;;3.67;73.81
9740;BME280;4909;42.680;26.324;2024-01-30T06:30:28;100687.63;;;3.71;74.64
9740;BME280;4909;42.680;26.324;2024-01-30T06:32:55;100694.16;;;3.99;74.10
9740;BME280;4909;42.680;26.324;2024-01-30T06:35:22;100687.78;;;3.82;73.74
9740;BME280;4909;42.680;26.324;2024-01-30T06:37:49;100683.78;;;4.08;73.90
9740;BME280;4909;42.680;26.324;2024-01-30T06:40:18;100683.09;;;4.20;73.36
9740;BME280;4909;42.680;26.324;2024-01-30T06:42:45;100687.25;;;4.06;73.05
9740;BME280;4909;42.680;26.324;2024-01-30T06:45:12;100671.81;;;4.31;72.91
9740;BME280;4909;42.680;26.324;2024-01-30T06:47:39;100698.97;;;4.29;72.64
9740;BME280;4909;42.680;26.324;2024-01-30T06:50:07;100688.69;;;4.47;72.32
9740;BME280;4909;42.680;26.324;2024-01-30T06:52:34;100700.06;;;4.45;72.52
9740;BME280;4909;42.680;26.324;2024-01-30T06:55:01;100700.25;;;4.61;71.50
9740;BME280;4909;42.680;26.324;2024-01-30T06:57:29;100688.16;;;4.74;71.07
9740;BME280;4909;42.680;26.324;2024-01-30T06:59:56;100694.34;;;4.77;70.44
9740;BME280;4909;42.680;26.324;2024-01-30T07:02:23;100678.47;;;4.71;70.82
9740;BME280;4909;42.680;26.324;2024-01-30T07:04:50;100692.78;;;4.96;70.22
9740;BME280;4909;42.680;26.324;2024-01-30T07:07:17;100691.81;;;4.87;69.43
9740;BME280;4909;42.680;26.324;2024-01-30T07:09:44;100624.94;;;3.96;70.92
9740;BME280;4909;42.680;26.324;2024-01-30T07:12:13;100688.44;;;4.26;71.28
9740;BME280;4909;42.680;26.324;2024-01-30T07:14:41;100687.63;;;4.33;71.60
9740;BME280;4909;42.680;26.324;2024-01-30T07:17:08;100681.53;;;4.37;71.22
9740;BME280;4909;42.680;26.324;2024-01-30T07:19:35;100659.50;;;4.27;70.96
9740;BME280;4909;42.680;26.324;2024-01-30T07:22:02;100696.56;;;4.46;71.34
9740;BME280;4909;42.680;26.324;2024-01-30T07:24:29;100696.84;;;4.70;70.78
9740;BME280;4909;42.680;26.324;2024-01-30T07:26:56;100699.63;;;4.80;70.55
9740;BME280;4909;42.680;26.324;2024-01-30T07:29:23;100707.09;;;4.47;70.97
9740;BME280;4909;42.680;26.324;2024-01-30T07:31:52;100704.44;;;4.44;70.65
9740;BME280;4909;42.680;26.324;2024-01-30T07:34:19;100697.56;;;4.55;70.64
9740;BME280;4909;42.680;26.324;2024-01-30T07:36:46;100688.81;;;4.56;71.05
9740;BME280;4909;42.680;26.324;2024-01-30T07:39:13;100689.28;;;4.26;71.22
9740;BME280;4909;42.680;26.324;2024-01-30T07:41:40;100691.81;;;4.19;72.45
9740;BME280;4909;42.680;26.324;2024-01-30T07:44:07;100670.00;;;4.24;71.59
9740;BME280;4909;42.680;26.324;2024-01-30T07:46:33;100672.81;;;4.38;71.55
9740;BME280;4909;42.680;26.324;2024-01-30T07:49:02;100680.03;;;4.56;71.58
9740;BME280;4909;42.680;26.324;2024-01-30T07:51:29;100681.31;;;4.90;70.49
9740;BME280;4909;42.680;26.324;2024-01-30T07:53:58;100685.75;;;4.95;69.69
9740;BME280;4909;42.680;26.324;2024-01-30T07:56:25;100689.34;;;5.05;69.72
9740;BME280;4909;42.680;26.324;2024-01-30T07:58:52;100687.63;;;5.07;67.84
9740;BME280;4909;42.680;26.324;2024-01-30T08:01:19;100686.78;;;5.09;67.95
9740;BME280;4909;42.680;26.324;2024-01-30T08:03:46;100693.03;;;5.17;68.17
9740;BME280;4909;42.680;26.324;2024-01-30T08:06:14;100694.88;;;5.28;67.46
9740;BME280;4909;42.680;26.324;2024-01-30T08:08:41;100653.69;;;5.36;67.91
9740;BME280;4909;42.680;26.324;2024-01-30T08:11:08;100704.50;;;5.25;67.70
9740;BME280;4909;42.680;26.324;2024-01-30T08:13:35;100713.38;;;5.38;66.58
9740;BME280;4909;42.680;26.324;2024-01-30T08:16:03;100707.34;;;5.48;66.97
9740;BME280;4909;42.680;26.324;2024-01-30T08:18:30;100684.56;;;5.53;65.33
9740;BME280;4909;42.680;26.324;2024-01-30T08:20:57;100682.91;;;5.64;65.67
9740;BME280;4909;42.680;26.324;2024-01-30T08:23:25;100665.28;;;5.59;65.32
9740;BME280;4909;42.680;26.324;2024-01-30T08:25:52;100681.13;;;5.63;65.10
9740;BME280;4909;42.680;26.324;2024-01-30T08:28:19;100675.09;;;5.78;65.13
9740;BME280;4909;42.680;26.324;2024-01-30T08:30:46;100672.38;;;5.66;65.13
9740;BME280;4909;42.680;26.324;2024-01-30T08:33:13;100688.88;;;5.45;64.37
9740;BME280;4909;42.680;26.324;2024-01-30T08:35:40;100683.72;;;5.56;65.48
9740;BME280;4909;42.680;26.324;2024-01-30T08:38:07;100689.69;;;5.38;66.02
9740;BME280;4909;42.680;26.324;2024-01-30T08:40:35;100657.03;;;5.19;66.33
9740;BME280;4909;42.680;26.324;2024-01-30T08:43:02;100691.53;;;5.48;65.40
9740;BME280;4909;42.680;26.324;2024-01-30T08:45:30;100702.69;;;5.23;65.71
9740;BME280;4909;42.680;26.324;2024-01-30T08:47:57;100679.09;;;5.31;65.15
9740;BME280;4909;42.680;26.324;2024-01-30T08:50:24;100658.28;;;5.62;65.87
9740;BME280;4909;42.680;26.324;2024-01-30T08:52:51;100672.50;;;5.83;63.92
9740;BME280;4909;42.680;26.324;2024-01-30T08:55:18;100676.00;;;5.83;64.85
9740;BME280;4909;42.680;26.324;2024-01-30T08:57:46;100685.00;;;6.05;63.75
9740;BME280;4909;42.680;26.324;2024-01-30T09:00:14;100682.19;;;5.85;63.70
9740;BME280;4909;42.680;26.324;2024-01-30T09:02:41;100676.72;;;5.59;64.16
9740;BME280;4909;42.680;26.324;2024-01-30T09:05:08;100671.44;;;5.62;65.20
9740;BME280;4909;42.680;26.324;2024-01-30T09:07:35;100672.38;;;5.67;65.03
9740;BME280;4909;42.680;26.324;2024-01-30T09:10:03;100661.63;;;5.37;65.13
9740;BME280;4909;42.680;26.324;2024-01-30T09:12:30;100689.63;;;5.31;65.64
9740;BME280;4909;42.680;26.324;2024-01-30T09:14:59;100683.72;;;5.57;65.43
9740;BME280;4909;42.680;26.324;2024-01-30T09:17:26;100689.00;;;5.62;65.68
9740;BME280;4909;42.680;26.324;2024-01-30T09:19:53;100692.41;;;5.46;65.52
9740;BME280;4909;42.680;26.324;2024-01-30T09:22:19;100689.53;;;5.23;66.58
9740;BME280;4909;42.680;26.324;2024-01-30T09:24:46;100689.59;;;5.29;66.38
9740;BME280;4909;42.680;26.324;2024-01-30T09:27:13;100683.38;;;5.18;66.11
9740;BME280;4909;42.680;26.324;2024-01-30T09:29:40;100688.84;;;5.42;66.41
9740;BME280;4909;42.680;26.324;2024-01-30T09:32:09;100667.66;;;5.27;66.75
9740;BME280;4909;42.680;26.324;2024-01-30T09:34:36;100668.47;;;5.21;66.69
9740;BME280;4909;42.680;26.324;2024-01-30T09:37:04;100683.41;;;5.22;66.87
9740;BME280;4909;42.680;26.324;2024-01-30T09:39:31;100679.00;;;5.23;67.22
9740;BME280;4909;42.680;26.324;2024-01-30T09:42:04;100687.84;;;5.27;66.93
9740;BME280;4909;42.680;26.324;2024-01-30T09:44:34;100638.63;;;5.21;67.09
9740;BME280;4909;42.680;26.324;2024-01-30T09:47:02;100682.09;;;5.75;65.09
9740;BME280;4909;42.680;26.324;2024-01-30T09:49:34;100681.44;;;5.98;64.98
9740;BME280;4909;42.680;26.324;2024-01-30T09:52:01;100683.13;;;5.92;64.93
9740;BME280;4909;42.680;26.324;2024-01-30T09:54:30;100687.59;;;6.02;64.51
9740;BME280;4909;42.680;26.324;2024-01-30T09:56:57;100686.69;;;5.97;63.72
9740;BME280;4909;42.680;26.324;2024-01-30T09:59:24;100683.00;;;5.78;62.89
9740;BME280;4909;42.680;26.324;2024-01-30T10:01:51;100679.72;;;6.08;63.38
9740;BME280;4909;42.680;26.324;2024-01-30T10:04:19;100671.97;;;6.37;62.53
9740;BME280;4909;42.680;26.324;2024-01-30T10:06:47;100667.50;;;6.19;62.61
9740;BME280;4909;42.680;26.324;2024-01-30T10:09:15;100668.41;;;6.30;62.29
9740;BME280;4909;42.680;26.324;2024-01-30T10:11:41;100656.16;;;6.44;61.18
9740;BME280;4909;42.680;26.324;2024-01-30T10:14:09;100657.06;;;6.42;61.00
9740;BME280;4909;42.680;26.324;2024-01-30T10:16:36;100667.63;;;6.48;61.03
9740;BME280;4909;42.680;26.324;2024-01-30T10:19:03;100664.78;;;6.08;61.55
9740;BME280;4909;42.680;26.324;2024-01-30T10:21:30;100670.84;;;5.94;63.00
9740;BME280;4909;42.680;26.324;2024-01-30T10:23:59;100654.38;;;6.36;62.58
9740;BME280;4909;42.680;26.324;2024-01-30T10:26:26;100652.72;;;6.58;61.22
9740;BME280;4909;42.680;26.324;2024-01-30T10:28:54;100661.59;;;6.85;61.10
9740;BME280;4909;42.680;26.324;2024-01-30T10:31:21;100659.03;;;7.14;59.37
9740;BME280;4909;42.680;26.324;2024-01-30T10:34:08;100660.81;;;7.24;57.27
9740;BME280;4909;42.680;26.324;2024-01-30T10:36:40;100655.44;;;6.85;59.46
9740;BME280;4909;42.680;26.324;2024-01-30T10:39:09;100643.16;;;7.02;60.63
9740;BME280;4909;42.680;26.324;2024-01-30T10:41:43;100652.84;;;7.03;58.88
9740;BME280;4909;42.680;26.324;2024-01-30T10:44:11;100655.50;;;7.02;58.74
9740;BME280;4909;42.680;26.324;2024-01-30T10:46:38;100652.78;;;6.77;59.42
9740;BME280;4909;42.680;26.324;2024-01-30T10:49:07;100654.56;;;6.89;59.80
9740;BME280;4909;42.680;26.324;2024-01-30T10:51:34;100651.09;;;7.10;58.43
9740;BME280;4909;42.680;26.324;2024-01-30T10:54:04;100630.88;;;7.25;58.13
9740;BME280;4909;42.680;26.324;2024-01-30T10:56:33;100609.72;;;7.04;57.25
9740;BME280;4909;42.680;26.324;2024-01-30T10:59:02;100647.47;;;6.70;57.05
9740;BME280;4909;42.680;26.324;2024-01-30T11:01:29;100646.28;;;6.02;59.08
9740;BME280;4909;42.680;26.324;2024-01-30T11:03:57;100641.22;;;6.39;58.66
9740;BME280;4909;42.680;26.324;2024-01-30T11:06:24;100631.66;;;6.79;58.37
9740;BME280;4909;42.680;26.324;2024-01-30T11:09:01;100621.97;;;6.78;57.95
9740;BME280;4909;42.680;26.324;2024-01-30T11:11:29;100635.25;;;7.08;57.69
9740;BME280;4909;42.680;26.324;2024-01-30T11:14:01;100599.16;;;7.07;57.63
9740;BME280;4909;42.680;26.324;2024-01-30T11:16:32;100608.84;;;7.63;56.80
9740;BME280;4909;42.680;26.324;2024-01-30T11:19:00;100617.63;;;7.78;55.65
9740;BME280;4909;42.680;26.324;2024-01-30T11:21:27;100631.75;;;7.79;54.52
9740;BME280;4909;42.680;26.324;2024-01-30T11:23:55;100631.72;;;7.77;55.56
9740;BME280;4909;42.680;26.324;2024-01-30T11:26:27;100561.31;;;6.90;54.38
9740;BME280;4909;42.680;26.324;2024-01-30T11:28:55;100616.78;;;7.45;55.39
9740;BME280;4909;42.680;26.324;2024-01-30T11:31:23;100608.81;;;7.81;55.61
9740;BME280;4909;42.680;26.324;2024-01-30T11:33:52;100586.78;;;7.77;54.83
9740;BME280;4909;42.680;26.324;2024-01-30T11:36:22;100601.72;;;8.03;55.43
9740;BME280;4909;42.680;26.324;2024-01-30T11:38:51;100610.53;;;8.03;54.52
9740;BME280;4909;42.680;26.324;2024-01-30T11:41:18;100596.34;;;8.22;54.37
9740;BME280;4909;42.680;26.324;2024-01-30T11:43:51;100604.31;;;8.10;53.23
9740;BME280;4909;42.680;26.324;2024-01-30T11:46:18;100602.59;;;7.90;53.65
9740;BME280;4909;42.680;26.324;2024-01-30T11:48:47;100602.63;;;7.91;53.13
9740;BME280;4909;42.680;26.324;2024-01-30T11:51:14;100601.78;;;7.56;54.53
9740;BME280;4909;42.680;26.324;2024-01-30T11:53:44;100597.34;;;7.88;55.30
9740;BME280;4909;42.680;26.324;2024-01-30T11:56:12;100576.25;;;7.46;55.22
9740;BME280;4909;42.680;26.324;2024-01-30T11:58:42;100596.50;;;7.62;56.45
9740;BME280;4909;42.680;26.324;2024-01-30T12:01:10;100568.31;;;7.56;55.80
9740;BME280;4909;42.680;26.324;2024-01-30T12:03:37;100597.38;;;7.61;54.63
9740;BME280;4909;42.680;26.324;2024-01-30T12:06:06;100591.22;;;7.31;55.07
9740;BME280;4909;42.680;26.324;2024-01-30T12:08:33;100574.44;;;7.70;55.71
9740;BME280;4909;42.680;26.324;2024-01-30T12:11:00;100587.59;;;7.99;53.47
9740;BME280;4909;42.680;26.324;2024-01-30T12:13:31;100587.69;;;7.55;54.21
9740;BME280;4909;42.680;26.324;2024-01-30T12:15:58;100585.94;;;7.65;54.05
9740;BME280;4909;42.680;26.324;2024-01-30T12:18:25;100575.38;;;7.69;54.49
9740;BME280;4909;42.680;26.324;2024-01-30T12:20:58;100584.16;;;7.56;52.77
9740;BME280;4909;42.680;26.324;2024-01-30T12:23:28;100581.56;;;7.55;55.57
9740;BME280;4909;42.680;26.324;2024-01-30T12:25:55;100535.78;;;7.28;53.34
9740;BME280;4909;42.680;26.324;2024-01-30T12:28:22;100578.88;;;7.65;53.16
9740;BME280;4909;42.680;26.324;2024-01-30T12:30:49;100577.97;;;7.88;53.34
9740;BME280;4909;42.680;26.324;2024-01-30T12:33:16;100575.28;;;7.91;52.15
9740;BME280;4909;42.680;26.324;2024-01-30T12:35:46;100581.53;;;7.64;52.46
9740;BME280;4909;42.680;26.324;2024-01-30T12:38:13;100573.63;;;7.36;53.61
9740;BME280;4909;42.680;26.324;2024-01-30T12:40:42;100561.31;;;7.14;54.85
9740;BME280;4909;42.680;26.324;2024-01-30T12:43:10;100535.78;;;7.10;53.79
9740;BME280;4909;42.680;26.324;2024-01-30T12:45:37;100554.25;;;7.12;53.90
9740;BME280;4909;42.680;26.324;2024-01-30T12:48:05;100577.16;;;7.22;54.91
9740;BME280;4909;42.680;26.324;2024-01-30T12:50:32;100580.69;;;7.25;52.98
9740;BME280;4909;42.680;26.324;2024-01-30T12:52:59;100562.19;;;6.90;54.21
9740;BME280;4909;42.680;26.324;2024-01-30T12:55:26;100581.50;;;6.70;54.58
9740;BME280;4909;42.680;26.324;2024-01-30T12:57:55;100573.59;;;6.67;55.84
9740;BME280;4909;42.680;26.324;2024-01-30T13:00:22;100567.44;;;6.63;55.37
9740;BME280;4909;42.680;26.324;2024-01-30T13:02:49;100574.50;;;6.76;56.59
9740;BME280;4909;42.680;26.324;2024-01-30T13:05:16;100554.16;;;6.37;56.19
9740;BME280;4909;42.680;26.324;2024-01-30T13:07:43;100567.38;;;6.49;56.30
9740;BME280;4909;42.680;26.324;2024-01-30T13:10:11;100545.38;;;6.34;57.18
9740;BME280;4909;42.680;26.324;2024-01-30T13:12:38;100542.66;;;6.20;57.06